Time;durP1;ratioP1;P1;durP2;ratioP2;P2;SDS_P1;SDS_P2;PMS_P1;PMS_P2;Temp;Humidity;BMP_temperature;BMP_pressure;BME280_temperature;BME280_humidity;BME280_pressure;Samples;Min_cycle;Max_cycle;Signal;HPM_P1;HPM_P2
2023/02/21 02:15:56;;;;;;;0.50;0.50;;;;;;;10.53;46.66;101363.97;5011463;28;20028;-79
2023/02/21 02:18:44;;;;;;;1.23;0.85;;;;;;;10.67;46.09;101365.19;5011608;28;20113;-79
2023/02/21 02:21:41;;;;;;;3.78;1.75;;;;;;;10.87;46.03;101373.88;5010109;28;20042;-79
2023/02/21 02:24:12;;;;;;;0.63;0.60;;;;;;;10.99;45.63;101361.34;5010369;28;20517;-79
2023/02/21 02:26:47;;;;;;;0.90;0.63;;;;;;;10.98;45.58;101368.28;5011452;28;20032;-79
2023/02/21 02:29:18;;;;;;;1.23;0.88;;;;;;;10.92;45.44;101355.59;5025958;28;20429;-79
2023/02/21 02:31:51;;;;;;;0.93;0.77;;;;;;;10.82;45.28;101330.97;5026577;28;20407;-79
2023/02/21 02:34:38;;;;;;;1.02;0.70;;;;;;;11.03;44.83;101353.41;5026423;28;20038;-79
2023/02/21 02:37:09;;;;;;;0.85;0.68;;;;;;;11.02;45.06;101354.31;5026582;28;20164;-80
2023/02/21 02:39:40;;;;;;;1.23;0.98;;;;;;;11.09;44.85;101360.09;5026383;28;20049;-79
2023/02/21 02:42:35;;;;;;;1.58;0.65;;;;;;;11.06;44.61;101353.28;5026246;28;20059;-79
2023/02/21 02:45:05;;;;;;;1.15;1.05;;;;;;;11.17;44.29;101358.03;5026558;28;20022;-79
2023/02/21 02:47:33;;;;;;;1.35;0.95;;;;;;;11.02;44.31;101328.44;5026172;28;20041;-79
2023/02/21 02:49:58;;;;;;;1.42;0.60;;;;;;;11.18;44.34;101363.16;5011193;28;20061;-79
2023/02/21 02:52:24;;;;;;;1.35;1.17;;;;;;;11.10;44.35;101338.47;5026106;28;20037;-79
2023/02/21 02:55:00;;;;;;;1.27;1.17;;;;;;;11.04;44.66;101331.81;5026326;28;20516;-80
2023/02/21 02:57:28;;;;;;;1.20;1.00;;;;;;;11.08;44.90;101346.28;5026012;28;20113;-79
2023/02/21 02:59:53;;;;;;;2.15;1.13;;;;;;;10.99;44.84;101331.13;5009696;28;20109;-79
2023/02/21 03:02:28;;;;;;;3.03;2.08;;;;;;;10.98;45.04;101344.97;5009588;28;20516;-79
2023/02/21 03:05:05;;;;;;;0.55;0.55;;;;;;;10.83;45.58;101330.06;5011221;28;20021;-79
2023/02/21 03:07:33;;;;;;;1.10;0.90;;;;;;;10.84;45.35;101339.50;5026152;28;20099;-79
2023/02/21 03:10:37;;;;;;;2.35;2.15;;;;;;;10.83;45.45;101340.41;5010908;28;20026;-79
2023/02/21 03:13:17;;;;;;;0.80;0.70;;;;;;;10.84;45.03;101332.59;5025543;28;20026;-80
2023/02/21 03:15:52;;;;;;;1.88;1.35;;;;;;;10.81;45.78;101332.69;5025734;28;20030;-79
2023/02/21 03:18:23;;;;;;;1.20;1.10;;;;;;;10.82;45.34;101331.81;5010502;28;20056;-79
2023/02/21 03:20:52;;;;;;;1.73;1.15;;;;;;;10.81;45.50;101329.25;5011795;28;20509;-79
2023/02/21 03:23:17;;;;;;;1.73;1.33;;;;;;;10.76;45.67;101323.41;5030205;28;20030;-79
2023/02/21 03:25:43;;;;;;;0.68;0.55;;;;;;;10.71;45.33;101310.63;5013349;28;20037;-79
2023/02/21 03:28:08;;;;;;;2.90;0.93;;;;;;;10.82;45.29;101336.13;5013489;28;20045;-79
2023/02/21 03:30:34;;;;;;;0.63;0.60;;;;;;;10.78;45.51;101332.81;5030017;28;20054;-79
2023/02/21 03:32:59;;;;;;;0.95;0.50;;;;;;;10.78;45.34;101331.97;5029893;28;20034;-79
2023/02/21 03:35:28;;;;;;;1.38;0.90;;;;;;;10.79;45.53;101328.47;5013833;28;20034;-79
2023/02/21 03:37:54;;;;;;;1.60;1.23;;;;;;;10.77;45.56;101335.47;5013417;28;20448;-79
2023/02/21 03:40:33;;;;;;;0.52;0.50;;;;;;;10.73;45.92;101333.91;5029506;28;20030;-79
2023/02/21 03:43:00;;;;;;;0.70;0.57;;;;;;;10.54;46.04;101302.69;5029718;28;20116;-79
2023/02/21 03:45:25;;;;;;;1.70;0.90;;;;;;;10.48;46.13;101300.34;5029829;28;20026;-80
2023/02/21 03:47:51;;;;;;;2.65;1.45;;;;;;;10.66;45.86;101327.25;5013016;28;20036;-80
2023/02/21 03:50:17;;;;;;;0.70;0.50;;;;;;;10.70;45.84;101324.50;5013215;28;20053;-79
2023/02/21 03:52:42;;;;;;;0.77;0.77;;;;;;;10.46;45.43;101269.34;5029141;28;20026;-79
2023/02/21 03:55:08;;;;;;;0.43;0.43;;;;;;;10.80;45.49;101314.63;5012566;28;20084;-79
2023/02/21 03:57:33;;;;;;;0.75;0.55;;;;;;;10.83;45.31;101324.88;5029553;28;20057;-80
2023/02/21 03:59:59;;;;;;;0.90;0.55;;;;;;;10.77;45.39;101304.41;5012679;28;20068;-79
2023/02/21 04:02:24;;;;;;;1.45;1.00;;;;;;;10.78;45.38;101298.31;5012712;28;20539;-79
2023/02/21 04:04:50;;;;;;;2.05;0.80;;;;;;;10.83;45.09;101310.19;5029456;28;20030;-79
2023/02/21 04:07:16;;;;;;;1.67;0.77;;;;;;;10.90;45.42;101313.34;5029231;28;20030;-79
2023/02/21 04:09:42;;;;;;;1.23;1.00;;;;;;;10.82;45.48;101303.34;5028865;28;20037;-79
2023/02/21 04:12:07;;;;;;;1.60;1.08;;;;;;;10.79;45.25;101297.41;5028943;28;20029;-79
2023/02/21 04:14:33;;;;;;;1.67;1.20;;;;;;;10.82;45.42;101307.66;4996339;28;20497;-79
2023/02/21 04:16:58;;;;;;;1.67;1.10;;;;;;;10.73;45.11;101282.16;5012774;28;20425;-78
2023/02/21 04:19:24;;;;;;;1.45;1.13;;;;;;;10.90;45.09;101296.09;5029166;28;20030;-79
2023/02/21 04:21:49;;;;;;;4.82;1.30;;;;;;;10.89;45.05;101297.00;5012547;28;20022;-78
2023/02/21 04:24:15;;;;;;;1.38;1.08;;;;;;;10.95;45.15;101288.16;5012252;28;20493;-78
2023/02/21 04:26:40;;;;;;;1.27;1.13;;;;;;;10.85;44.70;101266.13;5029043;28;20033;-78
2023/02/21 04:29:06;;;;;;;1.55;1.05;;;;;;;11.02;44.70;101283.56;5012240;28;20046;-78
2023/02/21 04:31:31;;;;;;;0.52;0.52;;;;;;;11.09;44.47;101272.03;5011701;28;20022;-78
2023/02/21 04:33:58;;;;;;;0.80;0.70;;;;;;;11.09;44.41;101272.03;4996045;28;20104;-79
2023/02/21 04:36:24;;;;;;;1.15;1.05;;;;;;;11.08;44.52;101268.63;5028522;28;20496;-82
2023/02/21 04:38:49;;;;;;;1.60;0.88;;;;;;;11.00;44.71;101243.94;5026087;28;20080;-81
2023/02/21 04:41:15;;;;;;;1.27;1.10;;;;;;;11.15;44.32;101264.88;5028348;28;20026;-80
2023/02/21 04:43:42;;;;;;;2.55;1.30;;;;;;;11.17;44.25;101257.88;5028514;28;20112;-80
2023/02/21 04:46:07;;;;;;;1.00;0.73;;;;;;;11.17;44.27;101242.34;5028192;28;20026;-80
2023/02/21 04:48:33;;;;;;;0.73;0.63;;;;;;;11.09;44.18;101228.88;5028113;28;20543;-80
2023/02/21 04:50:58;;;;;;;1.55;1.08;;;;;;;11.24;44.19;101252.47;5011774;28;20030;-80
2023/02/21 04:53:23;;;;;;;1.33;0.95;;;;;;;11.18;43.72;101232.81;5027908;28;20038;-84
2023/02/21 04:55:49;;;;;;;1.75;1.20;;;;;;;11.30;43.83;101241.81;5028070;28;20048;-82
2023/02/21 04:58:14;;;;;;;1.75;1.00;;;;;;;11.34;43.89;101233.03;5027922;28;20026;-82
2023/02/21 05:00:40;;;;;;;1.45;1.00;;;;;;;11.33;43.33;101236.53;5011508;28;20026;-83
2023/02/21 05:03:05;;;;;;;2.22;1.17;;;;;;;11.38;43.81;101234.56;5028332;28;20068;-82
2023/02/21 05:05:31;;;;;;;0.80;0.77;;;;;;;11.45;43.07;101244.63;5028461;28;20052;-83
2023/02/21 05:07:56;;;;;;;1.00;0.60;;;;;;;11.58;43.08;101263.06;5027536;28;20409;-83
2023/02/21 05:10:22;;;;;;;1.83;1.17;;;;;;;11.53;43.23;101239.13;5019886;28;20033;-83
2023/02/21 05:12:47;;;;;;;2.25;1.67;;;;;;;11.39;43.30;101211.19;4994367;28;20413;-82
2023/02/21 05:15:13;;;;;;;1.00;0.90;;;;;;;11.46;43.13;101217.81;5009335;28;20055;-82
2023/02/21 05:17:38;;;;;;;2.28;0.95;;;;;;;11.65;42.99;101253.28;5002859;28;20029;-82
2023/02/21 05:20:06;;;;;;;1.67;0.98;;;;;;;11.73;42.58;101253.81;5011025;28;20041;-83
2023/02/21 05:22:33;;;;;;;1.50;0.75;;;;;;;11.38;42.57;101199.16;4994763;28;20052;-87
2023/02/21 05:24:58;;;;;;;0.95;0.73;;;;;;;11.73;42.51;101236.50;4996436;28;20019;-94
2023/02/21 05:27:24;;;;;;;2.38;1.30;;;;;;;11.78;42.22;101234.53;5017922;28;20040;-94
2023/02/21 05:29:51;;;;;;;2.55;1.20;;;;;;;11.85;42.20;101240.31;5001054;28;20091;-89
2023/02/21 05:32:17;;;;;;;1.00;0.88;;;;;;;11.81;42.13;101217.22;5002732;28;20429;-86
2023/02/21 05:34:45;;;;;;;1.75;0.60;;;;;;;11.91;41.76;101236.63;5014429;28;20123;-94
2023/02/21 05:37:11;;;;;;;1.95;0.90;;;;;;;12.01;41.42;101235.31;5009552;28;20115;-82
2023/02/21 05:39:37;;;;;;;1.55;0.90;;;;;;;12.05;41.60;101249.81;5000799;28;20037;-88
2023/02/21 05:42:03;;;;;;;1.58;1.33;;;;;;;12.12;41.47;101253.81;4996208;28;20051;-92
2023/02/21 05:44:28;;;;;;;0.75;0.65;;;;;;;12.14;41.41;101240.78;5012811;28;20029;-94
2023/02/21 05:46:54;;;;;;;0.60;0.60;;;;;;;12.11;41.47;101233.97;4995638;28;20033;-92
2023/02/21 05:49:19;;;;;;;2.65;1.20;;;;;;;12.04;41.16;101228.22;5009839;28;20022;-81
2023/02/21 05:51:45;;;;;;;2.15;0.90;;;;;;;12.24;41.15;101255.00;5010137;28;20030;-81
2023/02/21 05:54:15;;;;;;;3.33;1.23;;;;;;;12.25;41.26;101262.72;4990494;28;20030;-91
2023/02/21 05:56:42;;;;;;;1.52;1.13;;;;;;;12.25;41.13;101251.50;5007726;28;20107;-91
2023/02/21 05:59:07;;;;;;;1.45;1.23;;;;;;;12.28;40.71;101257.38;5026229;28;20026;-96
2023/02/21 06:01:33;;;;;;;3.53;2.05;;;;;;;12.31;41.06;101262.44;5010901;28;20156;-93
2023/02/21 06:03:58;;;;;;;1.60;1.40;;;;;;;12.39;40.96;101281.97;5004534;28;20046;-95
2023/02/21 06:06:24;;;;;;;1.33;1.02;;;;;;;12.41;40.95;101270.66;5026986;28;20026;-94
2023/02/21 06:08:49;;;;;;;2.10;1.05;;;;;;;12.38;40.59;101281.16;5014068;28;20066;-90
2023/02/21 06:11:20;;;;;;;1.92;0.95;;;;;;;12.42;40.64;101287.06;4999111;28;20026;-93
2023/02/21 06:13:47;;;;;;;1.02;0.77;;;;;;;12.53;40.39;101274.41;4994234;28;20082;-87
2023/02/21 06:16:14;;;;;;;1.52;1.23;;;;;;;12.60;40.22;101288.81;5001854;28;20484;-90
2023/02/21 06:18:39;;;;;;;0.95;0.73;;;;;;;12.59;40.34;101274.97;5016244;28;20022;-89
2023/02/21 06:21:05;;;;;;;2.17;1.20;;;;;;;12.71;40.18;101298.69;5013322;28;20037;-94
2023/02/21 06:23:30;;;;;;;1.55;0.95;;;;;;;12.72;40.16;101306.38;4996458;28;20026;-90
2023/02/21 06:25:55;;;;;;;3.13;1.70;;;;;;;12.73;40.32;101308.06;5011132;28;20031;-82
2023/02/21 06:28:21;;;;;;;5.72;2.25;;;;;;;12.82;40.29;101312.84;5010313;28;20509;-95
2023/02/21 06:30:46;;;;;;;3.97;2.88;;;;;;;12.78;40.32;101303.53;5022425;28;20041;-89
2023/02/21 06:33:12;;;;;;;3.90;2.08;;;;;;;12.67;40.13;101278.94;5010535;28;20049;-93
2023/02/21 06:35:37;;;;;;;2.88;2.17;;;;;;;12.88;39.91;101304.75;5002085;28;20026;-90
2023/02/21 06:38:03;;;;;;;3.00;2.25;;;;;;;13.01;40.03;101317.16;5020912;28;20025;-94
2023/02/21 06:40:28;;;;;;;2.47;1.60;;;;;;;13.07;39.51;101322.88;4991829;28;20045;-92
2023/02/21 06:42:54;;;;;;;3.53;2.17;;;;;;;12.90;39.62;101291.69;5007295;28;20057;-92
2023/02/21 06:45:19;;;;;;;2.85;1.80;;;;;;;13.19;39.70;101319.75;4992094;28;20034;-92
2023/02/21 06:47:44;;;;;;;2.00;1.17;;;;;;;13.02;39.66;101287.66;5013591;28;20030;-93
2023/02/21 06:50:10;;;;;;;3.15;1.90;;;;;;;13.19;39.26;101295.50;5011498;28;20041;-86
2023/02/21 06:52:35;;;;;;;2.88;1.75;;;;;;;13.29;39.41;101316.69;5008110;28;20046;-96
2023/02/21 06:55:01;;;;;;;1.85;1.35;;;;;;;13.35;39.42;101319.81;4994353;28;20049;-94
2023/02/21 06:57:26;;;;;;;2.35;1.35;;;;;;;13.37;39.04;101314.53;5009445;28;20030;-94
2023/02/21 06:59:52;;;;;;;0.75;0.57;;;;;;;13.27;39.29;101295.94;5005607;28;20045;-90
2023/02/21 07:02:18;;;;;;;1.63;1.13;;;;;;;13.39;39.07;101307.53;5013057;28;20022;-95
2023/02/21 07:04:44;;;;;;;1.48;0.98;;;;;;;13.44;38.66;101300.31;4996599;28;20034;-79
2023/02/21 07:07:10;;;;;;;0.90;0.70;;;;;;;13.53;38.52;101310.25;5007909;28;20033;-88
2023/02/21 07:09:35;;;;;;;1.55;1.08;;;;;;;13.62;38.25;101303.75;5022885;28;20030;-80
2023/02/21 07:12:02;;;;;;;1.80;1.25;;;;;;;13.68;38.64;101303.47;5024406;28;20128;-80
2023/02/21 07:14:27;;;;;;;2.17;1.20;;;;;;;13.79;38.04;101321.94;5011574;28;20038;-90
2023/02/21 07:16:53;;;;;;;1.90;1.00;;;;;;;13.78;38.28;101309.88;5007584;28;20464;-93
2023/02/21 07:19:18;;;;;;;2.58;0.70;;;;;;;13.70;38.02;101283.41;5007657;28;20048;-92
2023/02/21 07:21:44;;;;;;;1.10;0.80;;;;;;;14.02;37.72;101316.38;5009992;28;20133;-79
2023/02/21 07:24:09;;;;;;;1.13;0.68;;;;;;;14.06;37.11;101304.91;4992328;28;20045;-86
2023/02/21 07:26:36;;;;;;;0.75;0.70;;;;;;;14.18;37.28;101319.03;5008647;28;20038;-88
2023/02/21 07:29:02;;;;;;;1.92;0.82;;;;;;;14.19;36.95;101314.66;4992050;28;20053;-94
2023/02/21 07:31:28;;;;;;;1.17;0.88;;;;;;;14.27;37.03;101315.94;5010938;28;20491;-85
2023/02/21 07:33:53;;;;;;;3.22;1.67;;;;;;;14.30;36.85;101318.38;5012254;28;20110;-88
2023/02/21 07:36:19;;;;;;;0.70;0.63;;;;;;;14.36;36.72;101304.22;4990364;28;20400;-91
2023/02/21 07:38:44;;;;;;;0.82;0.70;;;;;;;14.46;36.85;101313.22;5007274;28;20038;-94
2023/02/21 07:41:10;;;;;;;2.60;1.63;;;;;;;14.40;36.80;101287.47;4999446;28;20069;-93
2023/02/21 07:43:35;;;;;;;1.17;0.95;;;;;;;14.60;36.38;101302.88;5008972;28;20161;-89
2023/02/21 07:46:01;;;;;;;1.65;1.02;;;;;;;14.62;36.54;101279.38;4994240;28;20033;-89
2023/02/21 07:48:26;;;;;;;1.05;0.82;;;;;;;14.73;36.13;101284.81;5008866;28;20084;-95
2023/02/21 07:50:52;;;;;;;1.00;0.68;;;;;;;14.86;36.30;101290.19;4999090;28;20037;-94
2023/02/21 07:53:17;;;;;;;2.30;1.48;;;;;;;14.75;35.76;101246.53;5010303;28;20045;-89
2023/02/21 07:55:43;;;;;;;1.42;1.25;;;;;;;15.09;35.72;101286.28;4996461;28;20038;-92
2023/02/21 07:58:09;;;;;;;1.42;0.90;;;;;;;15.16;35.41;101293.66;4996178;28;20489;-93
2023/02/21 08:00:34;;;;;;;1.05;0.70;;;;;;;15.21;35.57;101294.22;5007822;28;20029;-89
2023/02/21 08:03:00;;;;;;;1.73;0.95;;;;;;;15.21;35.25;101290.78;4987643;28;20044;-87
2023/02/21 08:05:25;;;;;;;0.77;0.70;;;;;;;15.24;34.92;101294.97;5011498;28;20022;-82
2023/02/21 08:07:51;;;;;;;1.05;0.80;;;;;;;15.34;34.84;101298.72;4994950;28;20080;-82
2023/02/21 08:10:24;;;;;;;3.55;1.50;;;;;;;15.31;34.58;101283.28;5011784;28;20480;-91
2023/02/21 08:12:50;;;;;;;1.27;0.73;;;;;;;15.40;34.59;101286.19;5010011;28;20080;-93
2023/02/21 08:15:15;;;;;;;1.35;1.00;;;;;;;15.46;34.44;101292.81;5009337;28;20018;-87
2023/02/21 08:17:41;;;;;;;1.63;1.00;;;;;;;15.51;34.18;101282.94;5027967;28;20104;-79
2023/02/21 08:20:07;;;;;;;1.65;1.45;;;;;;;15.54;34.40;101267.13;5012869;28;20088;-91
2023/02/21 08:22:32;;;;;;;1.30;0.93;;;;;;;15.44;34.09;101248.59;5026699;28;20113;-87
2023/02/21 08:24:58;;;;;;;1.27;0.73;;;;;;;15.39;34.34;101240.19;5011502;28;20030;-88
2023/02/21 08:27:23;;;;;;;1.83;0.88;;;;;;;15.58;34.12;101263.41;5025553;28;20038;-84
2023/02/21 08:29:50;;;;;;;2.28;1.23;;;;;;;15.76;34.46;101270.16;5011914;28;20034;-86
2023/02/21 08:32:17;;;;;;;1.85;0.98;;;;;;;15.82;33.96;101296.78;5010380;28;20145;-84
2023/02/21 08:34:46;;;;;;;2.28;1.17;;;;;;;15.82;33.89;101281.13;5010397;28;20029;-88
2023/02/21 08:37:18;;;;;;;1.10;0.80;;;;;;;15.86;33.63;101300.91;5014655;28;20026;-86
2023/02/21 08:39:45;;;;;;;4.68;1.58;;;;;;;15.71;33.72;101266.97;5014237;28;20124;-93
2023/02/21 08:42:12;;;;;;;2.25;0.98;;;;;;;15.92;33.86;101284.88;5014627;28;20193;-91
2023/02/21 08:44:37;;;;;;;3.05;1.35;;;;;;;15.93;33.71;101299.63;5012197;28;20037;-85
2023/02/21 08:47:02;;;;;;;0.93;0.82;;;;;;;15.93;33.98;101297.84;5011444;28;20044;-85
2023/02/21 08:49:28;;;;;;;2.35;1.10;;;;;;;15.96;33.60;101309.84;5013361;28;20029;-93
2023/02/21 08:51:53;;;;;;;1.85;1.10;;;;;;;16.02;33.98;101296.41;5026751;28;20037;-87
2023/02/21 08:54:19;;;;;;;1.95;1.20;;;;;;;15.97;33.56;101299.31;5002581;28;20088;-91
2023/02/21 08:56:45;;;;;;;2.25;1.27;;;;;;;15.87;33.75;101284.31;5024169;28;20046;-93
2023/02/21 08:59:10;;;;;;;2.00;1.67;;;;;;;15.95;33.73;101298.59;5023920;28;20040;-91
2023/02/21 09:01:35;;;;;;;4.35;2.42;;;;;;;16.12;33.79;101309.75;5039529;28;20030;-90
2023/02/21 09:04:04;;;;;;;2.25;1.35;;;;;;;16.35;33.64;101307.41;5021495;28;20058;-83
2023/02/21 09:06:30;;;;;;;1.60;1.05;;;;;;;16.42;32.80;101283.50;5024622;28;20026;-83
2023/02/21 09:08:55;;;;;;;1.02;0.80;;;;;;;16.53;32.71;101283.69;5003525;28;20037;-89
2023/02/21 09:11:21;;;;;;;1.45;1.05;;;;;;;16.87;32.93;101293.69;5014709;28;20029;-80
2023/02/21 09:13:46;;;;;;;2.22;1.55;;;;;;;17.16;32.89;101290.94;5033969;28;20103;-90
2023/02/21 09:16:12;;;;;;;6.40;1.88;;;;;;;17.39;32.79;101315.56;5041353;28;20067;-85
2023/02/21 09:18:37;;;;;;;3.67;1.58;;;;;;;17.34;31.45;101308.03;5026952;28;20026;-87
2023/02/21 09:21:04;;;;;;;3.80;1.83;;;;;;;17.29;31.24;101293.59;5018874;28;20576;-89
2023/02/21 09:23:30;;;;;;;3.03;1.95;;;;;;;17.36;31.03;101300.91;5036178;28;20076;-89
2023/02/21 09:25:56;;;;;;;2.75;1.42;;;;;;;17.48;31.40;101301.88;5019984;28;20050;-85
2023/02/21 09:28:21;;;;;;;3.40;1.33;;;;;;;17.62;30.63;101303.59;5038138;28;20042;-89
2023/02/21 09:30:47;;;;;;;5.82;3.13;;;;;;;17.56;30.72;101278.66;5005879;28;20456;-85
2023/02/21 09:33:12;;;;;;;2.25;1.05;;;;;;;17.51;30.47;101269.47;5012448;28;20025;-86
2023/02/21 09:35:41;;;;;;;1.45;0.90;;;;;;;17.81;30.08;101287.50;5003287;28;20022;-96
2023/02/21 09:38:06;;;;;;;1.80;1.08;;;;;;;17.90;30.31;101277.22;5012445;28;20489;-89
2023/02/21 09:40:38;;;;;;;2.75;1.38;;;;;;;18.14;29.72;101286.94;5037730;28;20040;-86
2023/02/21 09:43:05;;;;;;;1.40;0.90;;;;;;;18.22;29.73;101293.31;5023503;28;20091;-87
2023/02/21 09:45:32;;;;;;;1.95;1.13;;;;;;;18.37;30.12;101283.50;5035303;28;20607;-88
2023/02/21 09:47:59;;;;;;;2.17;1.35;;;;;;;18.37;29.29;101283.50;5024516;28;20029;-89
2023/02/21 09:50:29;;;;;;;5.28;1.50;;;;;;;18.23;28.84;101258.31;5023855;28;20036;-86
2023/02/21 09:52:58;;;;;;;1.70;1.13;;;;;;;18.52;28.60;101286.84;5025291;28;20057;-85
2023/02/21 09:55:35;;;;;;;2.13;1.25;;;;;;;18.59;29.02;101275.81;5015944;28;20049;-86
2023/02/21 09:58:00;;;;;;;1.30;1.02;;;;;;;18.60;28.67;101277.47;5024110;28;20029;-93
2023/02/21 10:00:33;;;;;;;2.80;1.23;;;;;;;18.58;28.84;101266.28;5031328;28;20036;-92
2023/02/21 10:03:13;;;;;;;;;;;;;;;18.73;29.15;101268.75;5033626;28;20049;-91
2023/02/21 10:05:47;;;;;;;1.02;0.63;;;;;;;18.59;29.02;101240.91;5046075;28;19928;-91
2023/02/21 10:08:25;;;;;;;3.10;1.70;;;;;;;18.76;28.91;101250.16;5013460;28;20552;-81
2023/02/21 10:11:02;;;;;;;1.35;0.98;;;;;;;18.91;28.51;101243.81;5036450;28;20506;-82
2023/02/21 10:13:45;;;;;;;1.77;1.10;;;;;;;19.01;28.56;101231.69;5001470;28;20041;-86
2023/02/21 10:16:19;;;;;;;1.90;1.02;;;;;;;19.15;28.58;101228.84;5011670;28;20026;-90
2023/02/21 10:19:03;;;;;;;4.05;1.30;;;;;;;19.14;28.57;101200.97;5034869;28;20033;-91
2023/02/21 10:21:46;;;;;;;1.13;0.80;;;;;;;19.40;28.21;101221.75;5011986;28;20034;-86
2023/02/21 10:24:12;;;;;;;;;;;;;;;19.39;28.17;101230.59;5023834;28;20033;-87
2023/02/21 10:26:41;;;;;;;3.53;1.25;;;;;;;19.45;27.52;101219.59;5030320;28;19913;-84
2023/02/21 10:29:18;;;;;;;1.38;1.00;;;;;;;19.41;27.88;101232.13;5012167;28;20042;-80
2023/02/21 10:31:44;;;;;;;1.52;1.08;;;;;;;19.49;27.24;101216.66;5036283;28;20409;-82
2023/02/21 10:34:19;;;;;;;1.98;1.20;;;;;;;19.39;27.26;101215.69;5015527;28;20038;-83
2023/02/21 10:36:45;;;;;;;1.77;1.10;;;;;;;19.45;27.54;101220.44;5015277;28;20026;-93
2023/02/21 10:39:17;;;;;;;4.90;1.33;;;;;;;19.35;27.73;101216.00;5033649;28;20042;-96
2023/02/21 10:41:42;;;;;;;3.60;1.60;;;;;;;19.35;27.75;101195.03;5028639;28;20038;-81
2023/02/21 10:44:12;;;;;;;1.13;0.73;;;;;;;19.36;27.23;101199.31;5033593;28;20138;-89
2023/02/21 10:46:53;;;;;;;1.13;0.80;;;;;;;19.51;27.02;101202.56;5017922;28;20030;-92
2023/02/21 10:49:27;;;;;;;2.30;1.05;;;;;;;19.46;26.83;101192.41;5010653;28;20108;-93
2023/02/21 10:52:03;;;;;;;1.48;0.95;;;;;;;19.33;27.05;101183.81;5029796;28;20029;-95
2023/02/21 10:54:28;;;;;;;2.38;1.10;;;;;;;19.49;27.32;101197.44;5011644;28;20055;-82
2023/02/21 10:56:54;;;;;;;2.05;1.48;;;;;;;19.45;27.23;101178.47;5040235;28;20053;-84
2023/02/21 10:59:25;;;;;;;3.05;1.02;;;;;;;19.68;27.42;101200.34;5016233;28;20022;-80
2023/02/21 11:01:50;;;;;;;2.35;1.23;;;;;;;19.52;26.07;101205.06;5017074;28;20065;-79
2023/02/21 11:04:19;;;;;;;3.08;1.55;;;;;;;19.59;26.78;101182.69;5033922;28;20033;-80
2023/02/21 11:06:48;;;;;;;3.15;0.77;;;;;;;19.43;27.08;101190.03;5029555;28;20409;-93
2023/02/21 11:09:26;;;;;;;1.90;1.30;;;;;;;19.53;26.94;101191.00;5016309;28;20103;-86
2023/02/21 11:12:19;;;;;;;1.58;1.00;;;;;;;19.61;26.68;101167.66;5024268;28;20034;-93
2023/02/21 11:14:51;;;;;;;2.30;1.13;;;;;;;19.67;26.93;101172.44;5013885;28;20034;-85
2023/02/21 11:17:24;;;;;;;1.17;0.93;;;;;;;19.71;26.75;101167.75;5013584;28;20022;-87
2023/02/21 11:19:53;;;;;;;1.52;1.00;;;;;;;19.84;26.66;101175.50;5013462;28;20034;-86
2023/02/21 11:22:25;;;;;;;1.55;1.20;;;;;;;19.71;27.00;101152.84;5028091;28;20029;-83
2023/02/21 11:25:00;;;;;;;4.72;1.17;;;;;;;19.81;26.74;101173.94;5027087;28;20493;-87
2023/02/21 11:27:26;;;;;;;2.75;1.88;;;;;;;19.87;26.12;101155.09;5027690;28;20037;-89
2023/02/21 11:29:52;;;;;;;2.80;1.45;;;;;;;19.79;26.48;101154.03;5011627;28;20036;-82
2023/02/21 11:32:29;;;;;;;1.65;1.13;;;;;;;19.79;26.25;101149.63;5028333;28;20105;-87
2023/02/21 11:35:06;;;;;;;5.15;1.83;;;;;;;19.85;26.39;101145.66;5016836;28;20104;-89
2023/02/21 11:37:32;;;;;;;2.83;1.77;;;;;;;19.68;26.29;101111.09;5009563;28;20059;-86
2023/02/21 11:39:59;;;;;;;1.50;0.90;;;;;;;20.01;26.40;101149.56;5016898;28;20501;-83
2023/02/21 11:42:30;;;;;;;2.15;1.20;;;;;;;19.97;26.59;101136.81;5030146;28;20127;-80
2023/02/21 11:45:20;;;;;;;0.95;0.73;;;;;;;19.86;26.43;101121.94;5028173;28;20034;-85
2023/02/21 11:48:00;;;;;;;1.98;1.10;;;;;;;20.01;26.54;101138.22;5015567;28;20087;-84
2023/02/21 11:50:31;;;;;;;2.25;1.23;;;;;;;20.01;26.70;101122.47;5031209;28;20034;-86
2023/02/21 11:53:05;;;;;;;1.27;0.80;;;;;;;19.96;26.49;101107.09;5035087;28;20025;-87
2023/02/21 11:55:30;;;;;;;3.17;1.45;;;;;;;20.06;26.42;101112.44;5050978;28;20037;-85
2023/02/21 11:58:12;;;;;;;1.88;1.23;;;;;;;20.07;26.32;101110.66;5034427;28;20029;-80
2023/02/21 12:01:04;;;;;;;3.13;1.20;;;;;;;20.08;25.89;101110.53;5042057;28;20029;-87
2023/02/21 12:03:58;;;;;;;1.90;1.10;;;;;;;20.12;26.43;101113.72;5039680;28;20052;-87
2023/02/21 12:06:25;;;;;;;2.42;1.27;;;;;;;20.16;25.77;101102.84;5015068;28;20041;-90
2023/02/21 12:09:12;;;;;;;2.53;1.50;;;;;;;20.20;25.83;101091.13;5015923;28;20412;-86
2023/02/21 12:12:04;;;;;;;3.03;2.20;;;;;;;19.96;26.17;101072.09;5044137;28;20029;-83
2023/02/21 12:14:53;;;;;;;1.98;1.20;;;;;;;20.28;26.07;101099.22;5051434;28;20025;-89
2023/02/21 12:17:36;;;;;;;2.35;1.20;;;;;;;20.27;25.33;101073.06;5032050;28;20025;-84
2023/02/21 12:20:23;;;;;;;1.00;0.73;;;;;;;20.14;25.19;101054.00;5047019;28;20492;-82
2023/02/21 12:23:13;;;;;;;0.90;0.75;;;;;;;20.22;25.89;101055.03;5034863;28;20029;-83
2023/02/21 12:26:00;;;;;;;1.38;0.85;;;;;;;20.34;24.79;101077.66;5023219;28;20050;-84
2023/02/21 12:28:51;;;;;;;1.35;1.05;;;;;;;20.32;24.99;101058.59;5015811;28;20056;-84
2023/02/21 12:31:32;;;;;;;1.75;1.17;;;;;;;20.41;25.47;101061.41;5039091;28;20021;-83
2023/02/21 12:34:33;;;;;;;1.02;0.73;;;;;;;20.51;25.25;101065.81;4997813;28;20052;-81
2023/02/21 12:37:20;;;;;;;1.58;0.90;;;;;;;20.56;25.05;101060.16;5034495;28;20069;-81
2023/02/21 12:39:57;;;;;;;4.68;1.20;;;;;;;20.68;25.04;101056.50;5059274;28;20408;-82
2023/02/21 12:42:34;;;;;;;1.33;0.98;;;;;;;20.60;24.85;101045.78;5020945;28;20038;-83
2023/02/21 12:45:28;;;;;;;0.93;0.60;;;;;;;20.67;24.27;101054.84;5053771;28;20494;-83
2023/02/21 12:48:13;;;;;;;1.80;0.60;;;;;;;20.67;24.51;101051.38;5047897;28;20052;-82
2023/02/21 12:50:40;;;;;;;2.13;1.20;;;;;;;20.65;24.50;101025.22;5055213;28;20128;-82
2023/02/21 12:53:11;;;;;;;2.22;1.42;;;;;;;20.89;24.74;101051.22;5038991;28;20034;-83
2023/02/21 12:55:45;;;;;;;1.52;1.10;;;;;;;20.76;24.79;101016.41;5024849;28;20040;-89
2023/02/21 12:58:16;;;;;;;1.63;1.10;;;;;;;20.91;24.85;101028.25;5024511;28;20059;-84
2023/02/21 13:00:51;;;;;;;1.58;1.10;;;;;;;20.70;24.86;101030.09;5011594;28;20034;-86
2023/02/21 13:03:44;;;;;;;3.33;1.27;;;;;;;20.79;25.10;101038.00;5013434;28;20041;-83
2023/02/21 13:06:31;;;;;;;2.38;1.10;;;;;;;20.75;25.33;101039.25;5048167;28;20043;-81
2023/02/21 13:09:05;;;;;;;1.20;0.88;;;;;;;20.56;25.18;101044.41;5036602;28;20117;-85
2023/02/21 13:11:40;;;;;;;2.40;1.33;;;;;;;20.55;25.39;101045.34;5044769;28;20407;-84
2023/02/21 13:14:09;;;;;;;2.00;1.20;;;;;;;20.45;25.72;101031.31;5033880;28;20060;-86
2023/02/21 13:16:34;;;;;;;1.83;1.23;;;;;;;20.46;25.71;101027.75;5002201;28;20034;-85
2023/02/21 13:19:02;;;;;;;2.78;1.48;;;;;;;20.46;25.83;101014.59;5047688;28;20091;-82
2023/02/21 13:21:51;;;;;;;1.00;0.80;;;;;;;20.41;25.15;101030.72;5021086;28;20151;-82
2023/02/21 13:24:44;;;;;;;2.03;1.40;;;;;;;20.32;25.46;101034.94;5036832;28;20024;-82
2023/02/21 13:27:28;;;;;;;2.28;1.30;;;;;;;20.15;25.53;101006.59;5027665;28;20042;-82
2023/02/21 13:30:21;;;;;;;1.20;0.90;;;;;;;20.20;25.84;101028.09;5022076;28;20124;-79
2023/02/21 13:33:29;;;;;;;20.08;1.40;;;;;;;20.20;25.95;101028.09;5050360;28;20032;-85
2023/02/21 13:35:56;;;;;;;2.35;1.10;;;;;;;20.19;25.86;101009.81;5012310;28;20033;-82
2023/02/21 13:38:23;;;;;;;1.98;1.20;;;;;;;20.23;26.21;101017.31;5015526;28;20059;-84
2023/02/21 13:40:52;;;;;;;1.73;0.95;;;;;;;20.29;26.14;101022.06;5026316;28;20034;-81
2023/02/21 13:43:24;;;;;;;1.85;1.10;;;;;;;20.22;25.44;101002.50;5014520;28;20080;-82
2023/02/21 13:45:51;;;;;;;1.27;0.95;;;;;;;20.24;25.61;101024.22;5022960;28;20487;-91
2023/02/21 13:48:25;;;;;;;2.08;1.30;;;;;;;20.28;25.73;101020.41;5006894;28;20072;-93
2023/02/21 13:50:58;;;;;;;2.22;1.23;;;;;;;20.34;26.14;101024.28;5025057;28;20124;-93
2023/02/21 13:53:31;;;;;;;1.40;0.95;;;;;;;20.13;25.61;100984.88;5046965;28;20092;-86
2023/02/21 13:56:06;;;;;;;1.27;0.90;;;;;;;20.43;25.58;101018.28;5033571;28;20027;-86